sensor_id;sensor_type;location;lat;lon;timestamp;temperature;humidity
21666;DHT22;10994;45.486;9.190;2022-12-15T00:01:31;5.00;99.90
21666;DHT22;10994;45.486;9.190;2022-12-15T00:04:16;5.10;99.90
21666;DHT22;10994;45.486;9.190;2022-12-15T01:30:06;5.00;99.90
21666;DHT22;10994;45.486;9.190;2022-12-15T01:32:32;5.30;99.90
21666;DHT22;10994;45.486;9.190;2022-12-15T01:34:58;5.30;99.90
21666;DHT22;10994;45.486;9.190;2022-12-15T01:37:24;5.40;99.90
21666;DHT22;10994;45.486;9.190;2022-12-15T01:39:49;5.50;99.90
21666;DHT22;10994;45.486;9.190;2022-12-15T01:42:33;5.60;99.90
21666;DHT22;10994;45.486;9.190;2022-12-15T07:40:46;5.80;99.90
21666;DHT22;10994;45.486;9.190;2022-12-15T13:20:47;7.10;99.90
21666;DHT22;10994;45.486;9.190;2022-12-15T13:44:36;8.00;99.90
21666;DHT22;10994;45.486;9.190;2022-12-15T13:47:10;7.90;99.90
21666;DHT22;10994;45.486;9.190;2022-12-15T13:52:19;7.20;99.90
21666;DHT22;10994;45.486;9.190;2022-12-15T13:54:59;7.20;99.90
21666;DHT22;10994;45.486;9.190;2022-12-15T13:57:26;7.10;99.90
21666;DHT22;10994;45.486;9.190;2022-12-15T14:00:03;6.90;99.90
21666;DHT22;10994;45.486;9.190;2022-12-15T14:02:37;6.90;99.90
21666;DHT22;10994;45.486;9.190;2022-12-15T14:07:49;7.10;99.90
21666;DHT22;10994;45.486;9.190;2022-12-15T14:12:59;7.30;99.90
21666;DHT22;10994;45.486;9.190;2022-12-15T14:15:31;7.00;99.90
21666;DHT22;10994;45.486;9.190;2022-12-15T14:17:57;7.00;99.90
21666;DHT22;10994;45.486;9.190;2022-12-15T14:20:38;7.00;99.90
21666;DHT22;10994;45.486;9.190;2022-12-15T14:23:27;7.10;99.90
21666;DHT22;10994;45.486;9.190;2022-12-15T14:26:13;7.00;99.90
21666;DHT22;10994;45.486;9.190;2022-12-15T14:28:41;6.80;99.90
21666;DHT22;10994;45.486;9.190;2022-12-15T14:31:19;6.50;99.90
21666;DHT22;10994;45.486;9.190;2022-12-15T14:33:48;6.10;99.90
21666;DHT22;10994;45.486;9.190;2022-12-15T14:36:15;6.00;99.90
21666;DHT22;10994;45.486;9.190;2022-12-15T14:38:57;6.10;99.90
21666;DHT22;10994;45.486;9.190;2022-12-15T14:41:27;6.40;99.90
21666;DHT22;10994;45.486;9.190;2022-12-15T14:44:04;6.60;99.90
21666;DHT22;10994;45.486;9.190;2022-12-15T14:46:30;6.60;99.90
21666;DHT22;10994;45.486;9.190;2022-12-15T14:48:59;6.70;99.90
21666;DHT22;10994;45.486;9.190;2022-12-15T14:51:27;6.70;99.90
21666;DHT22;10994;45.486;9.190;2022-12-15T14:53:54;6.90;99.90
21666;DHT22;10994;45.486;9.190;2022-12-15T14:59:00;6.60;99.90
21666;DHT22;10994;45.486;9.190;2022-12-15T15:01:34;6.70;99.90
21666;DHT22;10994;45.486;9.190;2022-12-15T15:04:20;6.80;99.90
21666;DHT22;10994;45.486;9.190;2022-12-15T15:06:51;6.90;99.90
21666;DHT22;10994;45.486;9.190;2022-12-15T15:09:29;7.00;99.90
21666;DHT22;10994;45.486;9.190;2022-12-15T15:14:31;6.90;99.90
21666;DHT22;10994;45.486;9.190;2022-12-15T15:17:03;6.90;99.90
21666;DHT22;10994;45.486;9.190;2022-12-15T15:19:31;7.00;99.90
21666;DHT22;10994;45.486;9.190;2022-12-15T15:21:59;7.10;99.90
21666;DHT22;10994;45.486;9.190;2022-12-15T15:24:38;6.90;99.90
21666;DHT22;10994;45.486;9.190;2022-12-15T15:27:24;6.90;99.90
21666;DHT22;10994;45.486;9.190;2022-12-15T15:29:50;6.90;99.90
21666;DHT22;10994;45.486;9.190;2022-12-15T15:32:20;6.90;99.90
21666;DHT22;10994;45.486;9.190;2022-12-15T15:34:47;6.90;99.90
21666;DHT22;10994;45.486;9.190;2022-12-15T15:39:43;6.80;99.90
21666;DHT22;10994;45.486;9.190;2022-12-15T15:42:10;6.80;99.90
21666;DHT22;10994;45.486;9.190;2022-12-15T15:44:38;7.00;99.90
21666;DHT22;10994;45.486;9.190;2022-12-15T15:47:06;7.00;99.90
21666;DHT22;10994;45.486;9.190;2022-12-15T17:21:03;6.90;99.90
21666;DHT22;10994;45.486;9.190;2022-12-15T17:23:31;5.50;99.90
21666;DHT22;10994;45.486;9.190;2022-12-15T17:25:57;5.30;99.90
21666;DHT22;10994;45.486;9.190;2022-12-15T17:28:26;5.40;99.90
21666;DHT22;10994;45.486;9.190;2022-12-15T17:30:52;5.40;99.90
21666;DHT22;10994;45.486;9.190;2022-12-15T17:33:23;5.50;99.90
21666;DHT22;10994;45.486;9.190;2022-12-15T17:35:51;5.50;99.90
21666;DHT22;10994;45.486;9.190;2022-12-15T17:38:19;5.50;99.90
21666;DHT22;10994;45.486;9.190;2022-12-15T17:40:47;5.40;99.90
21666;DHT22;10994;45.486;9.190;2022-12-15T17:43:15;5.30;99.90
21666;DHT22;10994;45.486;9.190;2022-12-15T17:45:42;5.20;99.90
21666;DHT22;10994;45.486;9.190;2022-12-15T17:48:07;5.20;99.90
21666;DHT22;10994;45.486;9.190;2022-12-15T17:50:33;5.20;99.90
21666;DHT22;10994;45.486;9.190;2022-12-15T17:53:00;5.00;99.90
21666;DHT22;10994;45.486;9.190;2022-12-15T20:46:48;5.00;99.90
21666;DHT22;10994;45.486;9.190;2022-12-15T20:49:17;4.60;99.90
21666;DHT22;10994;45.486;9.190;2022-12-15T20:51:43;4.60;99.90
21666;DHT22;10994;45.486;9.190;2022-12-15T20:54:14;4.80;99.90
21666;DHT22;10994;45.486;9.190;2022-12-15T20:56:40;4.70;99.90
21666;DHT22;10994;45.486;9.190;2022-12-15T20:59:07;4.70;99.90
21666;DHT22;10994;45.486;9.190;2022-12-15T21:01:34;4.60;99.90
21666;DHT22;10994;45.486;9.190;2022-12-15T21:04:03;4.60;99.90
21666;DHT22;10994;45.486;9.190;2022-12-15T21:06:34;4.60;99.90
21666;DHT22;10994;45.486;9.190;2022-12-15T21:09:01;4.70;99.90
21666;DHT22;10994;45.486;9.190;2022-12-15T21:11:30;4.80;99.90
21666;DHT22;10994;45.486;9.190;2022-12-15T21:13:57;4.90;99.90
21666;DHT22;10994;45.486;9.190;2022-12-15T21:16:30;4.90;99.90
21666;DHT22;10994;45.486;9.190;2022-12-15T21:19:00;4.80;99.90
21666;DHT22;10994;45.486;9.190;2022-12-15T21:21:31;4.70;99.90
21666;DHT22;10994;45.486;9.190;2022-12-15T21:23:59;4.70;99.90
21666;DHT22;10994;45.486;9.190;2022-12-15T21:26:25;4.80;99.90
21666;DHT22;10994;45.486;9.190;2022-12-15T21:28:57;4.90;99.90
21666;DHT22;10994;45.486;9.190;2022-12-15T21:31:27;4.90;99.90
21666;DHT22;10994;45.486;9.190;2022-12-15T21:33:52;4.90;99.90
21666;DHT22;10994;45.486;9.190;2022-12-15T21:36:20;4.90;99.90
21666;DHT22;10994;45.486;9.190;2022-12-15T21:38:48;5.00;99.90
21666;DHT22;10994;45.486;9.190;2022-12-15T21:41:17;5.20;99.90
21666;DHT22;10994;45.486;9.190;2022-12-15T21:43:44;5.30;99.90
